CheckWX is a tool to help pilots better visualize weather data.  It is not intended as a substitute for an official pre-flight weather briefing.

15:54:04 UTC

KCHK METAR
Chickasha Municipal Airport
Chickasha, Oklahoma, USA
Current

24 mins ago

KCHK 291530Z AUTO 03007KT 10SM CLR 25/17 A3018 RMK AO2 T02480168
Observed
May-29 @ 15:30 UTC
Wind
  • 030° at 7 KTS
Visibility
Flight Rules
VFR
Cloud Levels
  • Clear skies
Temperature
25°C / 77°F
Dewpoint
17°C / 63°F
Humidity
61%
Altimeter
30.18" Hg
Pressure
1022.02 hPa
Previous

44 mins ago

KCHK 291510Z AUTO 03007KT 10SM CLR 24/17 A3018 RMK AO2 T02420169
Observed
May-29 @ 15:10 UTC
Wind
  • 030° at 7 KTS
Visibility
Flight Rules
VFR
Cloud Levels
  • Clear skies
Temperature
24°C / 75°F
Dewpoint
17°C / 63°F
Humidity
65%
Altimeter
30.18" Hg
Pressure
1022.02 hPa
Previous

59 mins ago

KCHK 291455Z AUTO 04007KT 10SM CLR 24/17 A3019 RMK AO2 T02380169
Observed
May-29 @ 14:55 UTC
Wind
  • 040° at 7 KTS
Visibility
Flight Rules
VFR
Cloud Levels
  • Clear skies
Temperature
24°C / 75°F
Dewpoint
17°C / 63°F
Humidity
65%
Altimeter
30.19" Hg
Pressure
1022.32 hPa